Time;durP1;ratioP1;P1;durP2;ratioP2;P2;SDS_P1;SDS_P2;PMS_P1;PMS_P2;Temp;Humidity;BMP_temperature;BMP_pressure;BME280_temperature;BME280_humidity;BME280_pressure;Samples;Min_cycle;Max_cycle;Signal;HPM_P1;HPM_P2
2024/02/13 00:00:35;;;;;;;45.63;38.53;;;;;3.30;96184.00;;;;5075306;28;20430;-70
2024/02/13 00:03:24;;;;;;;42.97;36.40;;;;;3.70;96190.00;;;;5077072;28;20942;-70
2024/02/13 00:06:14;;;;;;;39.07;34.87;;;;;3.50;96184.00;;;;5080772;28;20449;-70
2024/02/13 00:09:04;;;;;;;59.70;42.03;;;;;2.90;96186.00;;;;5083483;28;20818;-71
2024/02/13 00:11:53;;;;;;;41.23;34.87;;;;;3.00;96177.00;;;;5084500;28;20457;-70
2024/02/13 00:14:46;;;;;;;37.27;33.13;;;;;2.90;96173.00;;;;5080149;28;20433;-70
2024/02/13 00:17:36;;;;;;;36.80;32.47;;;;;3.30;96184.00;;;;5086656;28;20813;-69
2024/02/13 00:20:25;;;;;;;32.77;29.47;;;;;3.20;96191.00;;;;5078672;28;20428;-69
2024/02/13 00:23:17;;;;;;;38.37;33.73;;;;;3.30;96194.00;;;;5086383;28;20418;-69
2024/02/13 00:26:08;;;;;;;34.10;30.37;;;;;2.60;96184.00;;;;5075878;28;20449;-70
2024/02/13 00:28:57;;;;;;;50.83;36.33;;;;;3.10;96192.00;;;;5086554;28;20413;-70
2024/02/13 00:31:50;;;;;;;29.83;26.93;;;;;2.90;96190.00;;;;5088456;28;20462;-70
2024/02/13 00:34:40;;;;;;;28.37;25.47;;;;;3.20;96196.00;;;;5086065;28;20428;-70
2024/02/13 00:37:29;;;;;;;30.73;27.57;;;;;2.90;96183.00;;;;5083968;28;20417;-70
2024/02/13 00:40:18;;;;;;;29.43;26.47;;;;;3.10;96186.00;;;;5077387;28;20411;-70
2024/02/13 00:43:07;;;;;;;29.60;26.70;;;;;3.30;96202.00;;;;5077926;28;20430;-70
2024/02/13 00:45:57;;;;;;;30.80;27.33;;;;;3.10;96184.00;;;;5078726;28;20448;-70
2024/02/13 00:48:47;;;;;;;33.37;28.90;;;;;3.30;96208.00;;;;5084822;28;20440;-70
2024/02/13 00:51:36;;;;;;;31.83;28.63;;;;;3.30;96205.00;;;;5081856;28;20562;-70
2024/02/13 00:54:26;;;;;;;32.43;29.23;;;;;3.00;96216.00;;;;5079432;28;20437;-69
2024/02/13 00:57:15;;;;;;;30.30;27.37;;;;;2.90;96217.00;;;;5077777;28;20885;-68
2024/02/13 01:00:09;;;;;;;33.03;28.60;;;;;2.70;96201.00;;;;5086433;28;20433;-69
2024/02/13 01:02:58;;;;;;;32.20;29.07;;;;;3.00;96210.00;;;;5081895;28;20989;-68
2024/02/13 01:05:49;;;;;;;33.83;29.83;;;;;3.30;96230.00;;;;5083181;28;20442;-69
2024/02/13 01:08:38;;;;;;;29.77;26.73;;;;;3.20;96239.00;;;;5079118;28;20474;-69
2024/02/13 01:11:28;;;;;;;32.47;29.17;;;;;3.30;96241.00;;;;5086435;28;20461;-69
2024/02/13 01:14:17;;;;;;;31.93;28.77;;;;;3.40;96244.00;;;;5083472;28;20426;-69
2024/02/13 01:17:06;;;;;;;30.10;27.20;;;;;2.90;96243.00;;;;5088717;28;20426;-68
2024/02/13 01:19:55;;;;;;;33.53;29.83;;;;;2.80;96247.00;;;;5088369;28;20440;-68
2024/02/13 01:22:46;;;;;;;32.57;28.87;;;;;2.40;96239.00;;;;5087798;28;20429;-69
2024/02/13 01:25:37;;;;;;;29.83;26.77;;;;;3.00;96243.00;;;;5086775;28;20441;-70
2024/02/13 01:28:26;;;;;;;32.57;27.83;;;;;3.20;96241.00;;;;5086204;28;20964;-70
2024/02/13 01:31:15;;;;;;;31.53;28.47;;;;;3.30;96248.00;;;;5088316;28;20461;-69
2024/02/13 01:34:04;;;;;;;33.97;28.90;;;;;2.60;96250.00;;;;5083308;28;20961;-70
2024/02/13 01:36:57;;;;;;;38.57;31.47;;;;;2.40;96256.00;;;;5087063;28;20493;-69
2024/02/13 01:39:47;;;;;;;32.57;29.20;;;;;2.90;96265.00;;;;5087496;28;20434;-68
2024/02/13 01:42:37;;;;;;;29.67;26.73;;;;;2.80;96256.00;;;;5079477;28;20434;-70
2024/02/13 01:45:26;;;;;;;31.93;28.73;;;;;2.70;96263.00;;;;5084954;28;20445;-69
2024/02/13 01:48:17;;;;;;;41.97;35.90;;;;;2.70;96270.00;;;;5087163;28;20444;-69
2024/02/13 01:51:07;;;;;;;33.50;29.97;;;;;3.00;96277.00;;;;5085474;28;20982;-70
2024/02/13 01:53:58;;;;;;;42.90;35.77;;;;;2.60;96276.00;;;;5083585;28;20434;-69
2024/02/13 01:56:49;;;;;;;50.50;40.30;;;;;2.00;96274.00;;;;5081370;28;20445;-69
2024/02/13 01:59:39;;;;;;;88.27;51.67;;;;;2.50;96287.00;;;;5089851;28;20437;-69
2024/02/13 02:02:32;;;;;;;113.43;63.93;;;;;2.70;96287.00;;;;5080404;28;20417;-69
2024/02/13 02:05:22;;;;;;;24.03;21.83;;;;;2.40;96300.00;;;;5079843;28;20442;-70
2024/02/13 02:08:14;;;;;;;22.00;19.63;;;;;2.10;96283.00;;;;5080770;28;20433;-69
2024/02/13 02:11:03;;;;;;;19.40;16.90;;;;;2.70;96290.00;;;;5087889;28;23122;-69
2024/02/13 02:13:55;;;;;;;21.10;16.20;;;;;3.00;96302.00;;;;5087376;28;20438;-68
2024/02/13 02:16:44;;;;;;;19.20;15.17;;;;;2.80;96302.00;;;;5088112;28;20446;-69
2024/02/13 02:19:33;;;;;;;18.47;14.43;;;;;3.00;96315.00;;;;5083527;28;20820;-68
2024/02/13 02:22:22;;;;;;;14.07;12.80;;;;;2.70;96311.00;;;;5080185;28;21144;-70
2024/02/13 02:25:13;;;;;;;14.73;13.30;;;;;3.20;96317.00;;;;5078707;28;20445;-70
2024/02/13 02:28:03;;;;;;;20.07;17.40;;;;;3.30;96323.00;;;;5086830;28;20425;-70
2024/02/13 02:30:52;;;;;;;26.30;20.83;;;;;3.60;96318.00;;;;5085363;28;20433;-69
2024/02/13 02:33:42;;;;;;;28.87;22.43;;;;;3.30;96325.00;;;;5086581;28;20430;-69
2024/02/13 02:36:32;;;;;;;22.30;20.00;;;;;3.00;96317.00;;;;5087897;28;20457;-70
2024/02/13 02:39:21;;;;;;;27.17;22.10;;;;;3.00;96326.00;;;;5085706;28;20430;-68
2024/02/13 02:42:13;;;;;;;24.43;22.03;;;;;3.00;96330.00;;;;5087944;28;20439;-69
2024/02/13 02:45:02;;;;;;;58.83;37.30;;;;;3.10;96337.00;;;;5084786;28;20446;-69
2024/02/13 02:47:51;;;;;;;25.13;21.80;;;;;3.40;96345.00;;;;5085857;28;20953;-70
2024/02/13 02:50:40;;;;;;;18.80;16.97;;;;;3.30;96353.00;;;;5088630;28;20499;-70
2024/02/13 02:53:29;;;;;;;19.27;16.33;;;;;3.30;96361.00;;;;5081053;28;20466;-68
2024/02/13 02:56:19;;;;;;;18.37;15.83;;;;;2.90;96350.00;;;;5083022;28;21087;-70
2024/02/13 02:59:09;;;;;;;18.20;13.93;;;;;3.10;96360.00;;;;5087489;28;20818;-69
2024/02/13 03:01:58;;;;;;;19.87;14.40;;;;;3.50;96359.00;;;;5084553;28;20417;-69
2024/02/13 03:07:14;;;;;;;11.60;10.50;;;;;3.00;96358.00;;;;5120801;22;20495;-86
2024/02/13 03:10:10;;;;;;;18.57;12.43;;;;;3.00;96362.00;;;;5104198;28;20447;-86
2024/02/13 03:13:02;;;;;;;21.00;13.70;;;;;3.10;96367.00;;;;5083866;28;20518;-85
2024/02/13 03:15:53;;;;;;;21.27;14.70;;;;;3.40;96372.00;;;;5082749;28;20438;-86
2024/02/13 03:18:42;;;;;;;15.93;12.23;;;;;2.80;96369.00;;;;5078812;28;20439;-85
2024/02/13 03:21:31;;;;;;;11.23;10.10;;;;;2.60;96367.00;;;;5081086;28;20502;-86
2024/02/13 03:24:20;;;;;;;12.27;10.07;;;;;3.10;96375.00;;;;5091062;28;20430;-85
2024/02/13 03:27:09;;;;;;;14.17;11.40;;;;;3.10;96377.00;;;;5096472;28;20440;-86
2024/02/13 03:29:58;;;;;;;17.67;12.43;;;;;3.10;96385.00;;;;5085081;28;20446;-86
2024/02/13 03:32:49;;;;;;;12.50;9.13;;;;;3.10;96380.00;;;;5088272;28;20480;-85
2024/02/13 03:35:38;;;;;;;14.40;9.10;;;;;2.90;96388.00;;;;5090018;27;20433;-85
2024/02/13 03:38:28;;;;;;;17.67;10.27;;;;;2.60;96382.00;;;;5096039;28;21069;-87
2024/02/13 03:41:17;;;;;;;10.30;7.67;;;;;2.60;96383.00;;;;5094984;28;20444;-85
2024/02/13 03:44:10;;;;;;;18.10;10.57;;;;;2.10;96384.00;;;;5091577;28;20433;-85
2024/02/13 03:46:59;;;;;;;17.30;9.67;;;;;2.40;96391.00;;;;5092804;28;20800;-86
2024/02/13 03:49:50;;;;;;;14.33;8.73;;;;;2.10;96392.00;;;;5096486;28;20457;-86
2024/02/13 03:52:39;;;;;;;14.93;8.13;;;;;2.30;96386.00;;;;5088778;28;20981;-86
2024/02/13 03:55:28;;;;;;;10.70;7.97;;;;;2.60;96392.00;;;;5082413;28;20434;-87
2024/02/13 03:58:17;;;;;;;18.67;10.40;;;;;3.20;96403.00;;;;5085962;28;20429;-85
2024/02/13 04:01:06;;;;;;;16.93;9.73;;;;;3.30;96404.00;;;;5089240;28;20870;-86
2024/02/13 04:03:55;;;;;;;18.23;10.77;;;;;3.30;96415.00;;;;5091575;28;20418;-86
2024/02/13 04:06:46;;;;;;;16.97;10.57;;;;;3.30;96421.00;;;;5088590;28;20434;-85
2024/02/13 04:09:36;;;;;;;14.97;9.90;;;;;3.30;96418.00;;;;5094011;28;20427;-85
2024/02/13 04:12:25;;;;;;;11.03;7.83;;;;;3.20;96436.00;;;;5090936;28;20460;-86
2024/02/13 04:15:14;;;;;;;12.90;9.47;;;;;3.20;96433.00;;;;5085088;28;20422;-87
2024/02/13 04:18:04;;;;;;;17.33;10.53;;;;;2.90;96435.00;;;;5082677;28;20453;-85
2024/02/13 04:20:53;;;;;;;18.17;10.27;;;;;2.60;96424.00;;;;5090501;28;20449;-86
2024/02/13 04:23:44;;;;;;;26.17;14.10;;;;;2.90;96435.00;;;;5099577;28;20425;-86
2024/02/13 04:26:33;;;;;;;12.80;9.03;;;;;2.60;96418.00;;;;5095908;28;20464;-86
2024/02/13 04:29:23;;;;;;;19.83;10.70;;;;;2.00;96436.00;;;;5083743;28;20449;-86
2024/02/13 04:32:13;;;;;;;8.03;6.60;;;;;2.50;96435.00;;;;5092664;28;20446;-85
2024/02/13 04:35:03;;;;;;;18.90;11.20;;;;;2.50;96436.00;;;;5092460;28;20433;-86
2024/02/13 04:37:52;;;;;;;18.07;10.63;;;;;2.70;96449.00;;;;5090606;28;20933;-85
2024/02/13 04:40:42;;;;;;;13.90;8.60;;;;;2.70;96436.00;;;;5091569;28;20450;-85
2024/02/13 04:43:33;;;;;;;15.17;8.67;;;;;2.70;96451.00;;;;5090536;28;20425;-85
2024/02/13 04:46:24;;;;;;;13.03;8.93;;;;;2.40;96446.00;;;;5085687;28;20432;-86
2024/02/13 04:49:13;;;;;;;9.40;6.23;;;;;2.30;96457.00;;;;5093802;28;20416;-86
2024/02/13 04:52:04;;;;;;;23.00;11.87;;;;;2.00;96450.00;;;;5093055;28;20967;-86
2024/02/13 04:54:53;;;;;;;18.50;9.53;;;;;2.30;96442.00;;;;5100033;28;20426;-86
2024/02/13 04:57:44;;;;;;;12.93;8.93;;;;;2.90;96454.00;;;;5094604;28;20444;-85
2024/02/13 05:00:36;;;;;;;13.57;9.37;;;;;2.90;96467.00;;;;5087272;28;21095;-85
2024/02/13 05:03:27;;;;;;;15.30;10.73;;;;;2.70;96463.00;;;;5095571;28;20535;-86
2024/02/13 05:09:24;;;;;;;19.53;11.77;;;;;2.80;96471.00;;;;5093654;28;20420;-85
2024/02/13 05:12:14;;;;;;;11.03;6.83;;;;;2.80;96465.00;;;;5102719;28;20421;-85
2024/02/13 05:15:08;;;;;;;11.70;9.10;;;;;2.60;96469.00;;;;5088100;28;20436;-85
2024/02/13 05:17:57;;;;;;;17.13;10.93;;;;;2.80;96485.00;;;;5086452;28;20440;-86
2024/02/13 05:20:47;;;;;;;17.20;10.37;;;;;2.80;96470.00;;;;5088515;28;21124;-84
2024/02/13 05:23:38;;;;;;;24.20;13.47;;;;;2.60;96478.00;;;;5095411;28;20919;-85
2024/02/13 05:26:27;;;;;;;13.10;10.27;;;;;2.60;96478.00;;;;5091209;28;20495;-86
2024/02/13 05:29:16;;;;;;;8.77;7.73;;;;;2.60;96484.00;;;;5084615;28;20429;-85
2024/02/13 05:32:07;;;;;;;24.73;12.93;;;;;2.70;96500.00;;;;5085634;28;20446;-86
2024/02/13 05:34:56;;;;;;;18.57;11.67;;;;;2.20;96494.00;;;;5084199;28;20426;-85
2024/02/13 05:37:45;;;;;;;12.37;9.33;;;;;2.00;96495.00;;;;5094190;28;20430;-84
2024/02/13 05:40:36;;;;;;;16.90;9.40;;;;;1.60;96493.00;;;;5081611;28;20461;-86
2024/02/13 05:43:26;;;;;;;18.13;10.70;;;;;2.20;96503.00;;;;5084943;28;20435;-85
2024/02/13 05:46:17;;;;;;;14.00;10.67;;;;;1.90;96508.00;;;;5084369;28;20430;-84
2024/02/13 05:49:08;;;;;;;25.70;13.53;;;;;1.90;96510.00;;;;5079121;28;20441;-84
2024/02/13 05:51:57;;;;;;;18.20;11.70;;;;;2.00;96511.00;;;;5089854;28;20430;-84
2024/02/13 05:54:47;;;;;;;15.13;11.80;;;;;2.50;96524.00;;;;5087294;28;20473;-86
2024/02/13 05:57:37;;;;;;;20.50;13.50;;;;;1.90;96521.00;;;;5084065;28;20431;-84
2024/02/13 06:00:26;;;;;;;12.73;10.20;;;;;1.20;96521.00;;;;5087568;28;20451;-84
2024/02/13 06:03:15;;;;;;;15.40;11.73;;;;;1.40;96521.00;;;;5085205;28;20417;-85
2024/02/13 06:06:06;;;;;;;18.90;13.13;;;;;1.90;96528.00;;;;5085816;28;20450;-85
2024/02/13 06:08:55;;;;;;;26.43;15.50;;;;;1.70;96521.00;;;;5085026;28;20441;-84
2024/02/13 06:11:45;;;;;;;16.37;11.90;;;;;1.80;96535.00;;;;5086905;28;20661;-84
2024/02/13 06:14:34;;;;;;;12.03;10.73;;;;;2.60;96549.00;;;;5089085;28;20994;-86
2024/02/13 06:17:24;;;;;;;11.73;10.57;;;;;3.00;96553.00;;;;5081145;28;20434;-84
2024/02/13 06:20:14;;;;;;;13.00;11.80;;;;;3.00;96561.00;;;;5085717;28;21021;-84
2024/02/13 06:23:05;;;;;;;24.03;16.67;;;;;3.20;96567.00;;;;5084328;28;20453;-84
2024/02/13 06:25:54;;;;;;;26.07;18.47;;;;;3.20;96579.00;;;;5086630;28;20784;-86
2024/02/13 06:28:43;;;;;;;14.73;13.07;;;;;3.30;96593.00;;;;5089630;28;20438;-84
2024/02/13 06:31:33;;;;;;;15.43;13.70;;;;;3.40;96605.00;;;;5093523;28;20446;-84
2024/02/13 06:34:22;;;;;;;16.73;14.97;;;;;3.50;96601.00;;;;5080596;28;20470;-86
2024/02/13 06:37:11;;;;;;;16.93;13.63;;;;;3.40;96609.00;;;;5090430;28;20425;-86
2024/02/13 06:40:03;;;;;;;20.13;17.33;;;;;3.60;96613.00;;;;5095079;28;20460;-85
2024/02/13 06:42:52;;;;;;;134.63;76.80;;;;;2.80;96607.00;;;;5083429;28;20434;-84
2024/02/13 06:45:41;;;;;;;16.50;14.57;;;;;2.70;96613.00;;;;5066868;28;20426;-86
2024/02/13 06:48:30;;;;;;;18.87;16.70;;;;;2.80;96617.00;;;;5084460;28;20417;-86
2024/02/13 06:51:20;;;;;;;31.87;21.47;;;;;3.40;96632.00;;;;5087104;28;20476;-85
2024/02/13 06:54:09;;;;;;;23.60;19.80;;;;;3.10;96642.00;;;;5098516;28;20457;-85
2024/02/13 06:57:01;;;;;;;188.73;94.73;;;;;2.50;96636.00;;;;5053316;28;20438;-86
2024/02/13 06:59:50;;;;;;;174.37;92.10;;;;;2.90;96638.00;;;;5027733;28;20555;-85
2024/02/13 07:02:39;;;;;;;146.97;88.27;;;;;3.60;96645.00;;;;5028415;28;20536;-85
2024/02/13 07:05:29;;;;;;;178.50;90.43;;;;;3.60;96654.00;;;;5031026;27;20573;-86
2024/02/13 07:08:18;;;;;;;23.03;19.37;;;;;3.80;96654.00;;;;5088621;28;20961;-84
2024/02/13 07:11:08;;;;;;;161.63;86.73;;;;;3.10;96642.00;;;;5050449;28;20460;-85
2024/02/13 07:13:58;;;;;;;163.37;96.30;;;;;3.00;96650.00;;;;5028896;28;20468;-86
2024/02/13 07:16:48;;;;;;;152.60;79.60;;;;;3.40;96651.00;;;;5034829;28;20802;-85
2024/02/13 07:19:37;;;;;;;20.63;18.57;;;;;3.20;96654.00;;;;5047608;28;20434;-85
2024/02/13 07:22:26;;;;;;;21.23;19.23;;;;;3.80;96661.00;;;;5085187;28;20843;-85
2024/02/13 07:25:15;;;;;;;16.60;15.03;;;;;3.20;96663.00;;;;5082805;28;20427;-85
2024/02/13 07:28:05;;;;;;;25.97;21.73;;;;;3.80;96674.00;;;;5055187;28;20441;-87
2024/02/13 07:30:56;;;;;;;27.43;24.13;;;;;3.30;96677.00;;;;5077253;28;20459;-86
2024/02/13 07:33:45;;;;;;;35.90;27.03;;;;;3.50;96668.00;;;;5096579;28;20475;-86
2024/02/13 07:36:34;;;;;;;22.43;20.40;;;;;3.30;96667.00;;;;5093916;28;20967;-85
2024/02/13 07:39:23;;;;;;;23.90;21.37;;;;;4.40;96692.00;;;;5086052;28;20431;-87
2024/02/13 07:42:12;;;;;;;24.27;21.93;;;;;4.30;96695.00;;;;5083258;28;20436;-86
2024/02/13 07:45:03;;;;;;;29.63;26.53;;;;;4.60;96694.00;;;;5089295;28;20421;-86
2024/02/13 07:47:54;;;;;;;25.13;22.87;;;;;4.80;96704.00;;;;5094983;28;20513;-86
2024/02/13 07:50:43;;;;;;;28.83;26.00;;;;;4.60;96705.00;;;;5093005;28;20449;-85
2024/02/13 07:53:32;;;;;;;30.10;27.23;;;;;5.10;96719.00;;;;5075762;28;20203;-86
2024/02/13 07:56:28;;;;;;;29.93;27.13;;;;;4.60;96722.00;;;;5091550;28;20418;-86
2024/02/13 07:59:18;;;;;;;28.53;26.00;;;;;4.90;96705.00;;;;5085773;28;20206;-85
2024/02/13 08:02:07;;;;;;;32.57;29.23;;;;;5.30;96720.00;;;;5098236;28;20930;-87
2024/02/13 08:04:57;;;;;;;30.63;28.10;;;;;5.60;96725.00;;;;5083168;28;20204;-87
2024/02/13 08:07:46;;;;;;;32.17;29.27;;;;;5.80;96722.00;;;;5087840;28;20622;-86
2024/02/13 08:10:36;;;;;;;32.10;29.23;;;;;6.00;96722.00;;;;5090008;28;20219;-86
2024/02/13 08:13:25;;;;;;;41.97;37.73;;;;;5.80;96720.00;;;;5087911;28;20611;-87
2024/02/13 08:16:14;;;;;;;36.40;32.97;;;;;6.20;96722.00;;;;5093341;28;20199;-86
2024/02/13 08:19:03;;;;;;;48.73;43.43;;;;;6.80;96722.00;;;;5097776;28;20195;-87
2024/02/13 08:21:54;;;;;;;41.30;37.10;;;;;6.80;96722.00;;;;5092692;28;20211;-86
2024/02/13 08:24:43;;;;;;;48.47;43.40;;;;;6.80;96720.00;;;;5088247;28;20192;-85
2024/02/13 08:27:35;;;;;;;41.07;37.23;;;;;7.50;96727.00;;;;5084657;28;20205;-85
2024/02/13 08:30:24;;;;;;;48.47;43.50;;;;;7.80;96725.00;;;;5087814;28;20607;-86
2024/02/13 08:33:13;;;;;;;53.43;47.93;;;;;7.70;96715.00;;;;5084070;28;20203;-86
2024/02/13 08:36:02;;;;;;;53.47;47.93;;;;;7.80;96725.00;;;;5090515;28;20246;-87
2024/02/13 08:38:53;;;;;;;50.57;45.40;;;;;8.50;96726.00;;;;5090837;28;20201;-85
2024/02/13 08:41:42;;;;;;;59.40;53.03;;;;;8.90;96729.00;;;;5097648;28;20251;-85
2024/02/13 08:44:33;;;;;;;63.77;56.90;;;;;9.40;96744.00;;;;5096589;28;20195;-88
2024/02/13 08:47:22;;;;;;;55.60;50.00;;;;;7.90;96715.00;;;;5098367;28;20206;-86
2024/02/13 08:50:12;;;;;;;57.63;51.47;;;;;9.10;96724.00;;;;5095354;28;20230;-87
2024/02/13 08:53:02;;;;;;;70.57;61.17;;;;;9.50;96740.00;;;;5083007;28;20202;-86
2024/02/13 08:55:52;;;;;;;65.93;58.93;;;;;10.00;96743.00;;;;5102126;28;20215;-86
2024/02/13 08:58:43;;;;;;;63.40;56.97;;;;;8.50;96730.00;;;;5097840;28;20200;-85
2024/02/13 09:01:32;;;;;;;67.30;60.00;;;;;9.90;96746.00;;;;5092457;28;20597;-87
2024/02/13 09:04:21;;;;;;;71.00;63.50;;;;;10.40;96753.00;;;;5082058;28;20668;-86
2024/02/13 09:07:10;;;;;;;73.37;65.40;;;;;10.40;96747.00;;;;5089765;28;20207;-85
2024/02/13 09:09:59;;;;;;;76.83;68.50;;;;;10.50;96760.00;;;;5095317;28;20219;-87
2024/02/13 09:12:50;;;;;;;73.00;65.30;;;;;10.60;96754.00;;;;5094567;28;20206;-86
2024/02/13 09:15:39;;;;;;;69.73;62.60;;;;;10.70;96754.00;;;;5094055;28;20225;-87
2024/02/13 09:18:28;;;;;;;65.73;59.20;;;;;10.90;96755.00;;;;5085323;28;20199;-86
2024/02/13 09:21:17;;;;;;;61.53;55.97;;;;;10.70;96766.00;;;;5084515;28;20277;-87
2024/02/13 09:24:09;;;;;;;61.13;55.57;;;;;10.50;96761.00;;;;5091957;28;20203;-85
2024/02/13 09:26:58;;;;;;;63.30;57.57;;;;;10.40;96770.00;;;;5102691;28;20199;-87
2024/02/13 09:29:48;;;;;;;65.77;59.70;;;;;11.20;96758.00;;;;5086252;28;20219;-87
2024/02/13 09:32:38;;;;;;;63.33;57.70;;;;;11.60;96746.00;;;;5089607;28;20274;-87
2024/02/13 09:35:27;;;;;;;79.77;72.33;;;;;12.10;96767.00;;;;5081600;28;20223;-87
2024/02/13 09:38:17;;;;;;;75.30;67.90;;;;;12.30;96764.00;;;;5086610;28;20199;-87
2024/02/13 09:41:06;;;;;;;79.13;71.47;;;;;12.40;96781.00;;;;5098941;28;20227;-87
2024/02/13 09:43:56;;;;;;;78.90;71.33;;;;;12.10;96788.00;;;;5084770;28;20203;-86
2024/02/13 09:46:47;;;;;;;78.83;71.60;;;;;12.00;96789.00;;;;5090151;28;20199;-86
2024/02/13 09:49:38;;;;;;;78.73;71.73;;;;;12.20;96788.00;;;;5088414;28;20787;-87
2024/02/13 09:52:30;;;;;;;77.43;70.53;;;;;12.60;96793.00;;;;5099336;28;20206;-85
2024/02/13 09:55:19;;;;;;;77.87;71.20;;;;;12.80;96795.00;;;;5092696;28;20216;-87
2024/02/13 09:58:08;;;;;;;86.90;78.73;;;;;13.00;96801.00;;;;5095616;28;20199;-87
2024/02/13 10:00:58;;;;;;;84.30;76.73;;;;;13.10;96790.00;;;;5083618;28;20219;-87
2024/02/13 10:03:49;;;;;;;97.90;88.03;;;;;13.30;96784.00;;;;5084343;28;20207;-85
2024/02/13 10:06:38;;;;;;;90.33;82.00;;;;;13.20;96797.00;;;;5092725;28;20227;-87
2024/02/13 10:09:28;;;;;;;93.10;84.60;;;;;13.10;96792.00;;;;5093096;28;20596;-86
2024/02/13 10:12:18;;;;;;;88.83;81.27;;;;;13.20;96796.00;;;;5093273;28;20195;-87
2024/02/13 10:15:09;;;;;;;97.20;88.40;;;;;13.30;96796.00;;;;5084371;28;20229;-86
2024/02/13 10:17:58;;;;;;;86.47;79.03;;;;;11.70;96784.00;;;;5094994;28;20604;-86
2024/02/13 10:20:49;;;;;;;76.87;70.70;;;;;11.90;96818.00;;;;5092742;28;20219;-85
2024/02/13 10:23:39;;;;;;;89.87;81.63;;;;;12.60;96814.00;;;;5097571;28;20209;-85
2024/02/13 10:26:28;;;;;;;84.07;76.93;;;;;12.30;96796.00;;;;5087750;28;20203;-87
2024/02/13 10:29:17;;;;;;;84.03;76.97;;;;;12.00;96801.00;;;;5087168;28;20225;-87
2024/02/13 10:32:07;;;;;;;92.80;84.33;;;;;13.00;96794.00;;;;5096531;28;20291;-86
2024/02/13 10:34:56;;;;;;;82.77;75.63;;;;;12.70;96810.00;;;;5089354;28;20748;-86
2024/02/13 10:37:49;;;;;;;84.77;77.77;;;;;13.40;96819.00;;;;5086687;28;20584;-87
2024/02/13 10:40:39;;;;;;;87.33;80.00;;;;;13.70;96835.00;;;;5090901;28;20220;-87
2024/02/13 10:43:30;;;;;;;97.63;89.27;;;;;13.70;96829.00;;;;5093646;28;20206;-85
2024/02/13 10:46:22;;;;;;;97.77;89.07;;;;;13.80;96841.00;;;;5074273;28;20192;-86
2024/02/13 10:49:21;;;;;;;93.43;85.40;;;;;12.00;96821.00;;;;5078593;28;20226;-87
2024/02/13 10:52:11;;;;;;;92.03;84.20;;;;;12.70;96832.00;;;;5092761;28;20205;-85
2024/02/13 10:55:06;;;;;;;93.73;85.37;;;;;13.90;96831.00;;;;5088900;28;20667;-85
2024/02/13 10:57:56;;;;;;;85.10;78.33;;;;;12.60;96843.00;;;;5094515;27;20606;-86
2024/02/13 11:00:46;;;;;;;89.53;82.23;;;;;12.40;96851.00;;;;5082196;28;20216;-86
2024/02/13 11:03:37;;;;;;;79.00;72.70;;;;;11.50;96848.00;;;;5089259;28;20203;-86
2024/02/13 11:06:26;;;;;;;78.13;72.13;;;;;12.90;96806.00;;;;5088884;28;20210;-86
2024/02/13 11:09:16;;;;;;;85.17;78.27;;;;;14.40;96821.00;;;;5090145;28;20199;-86
2024/02/13 11:12:08;;;;;;;101.00;92.03;;;;;14.70;96812.00;;;;5085284;28;20207;-85
2024/02/13 11:15:08;;;;;;;116.77;106.33;;;;;15.30;96816.00;;;;5089002;28;20704;-85
2024/02/13 11:17:58;;;;;;;120.30;110.10;;;;;14.40;96807.00;;;;5087162;28;20203;-87
2024/02/13 11:20:53;;;;;;;126.93;116.23;;;;;14.90;96843.00;;;;5081960;28;20665;-85
2024/02/13 11:23:53;;;;;;;141.43;128.87;;;;;14.80;96829.00;;;;5096114;28;20673;-85
2024/02/13 11:26:42;;;;;;;138.57;127.33;;;;;15.50;96830.00;;;;5089935;28;20199;-85
2024/02/13 11:29:32;;;;;;;146.40;133.50;;;;;16.60;96826.00;;;;5083293;28;20200;-85
2024/02/13 11:32:28;;;;;;;152.97;140.17;;;;;14.20;96835.00;;;;5085039;28;20568;-86
2024/02/13 11:35:18;;;;;;;149.17;137.10;;;;;14.70;96829.00;;;;5081288;28;20206;-86
2024/02/13 11:38:12;;;;;;;154.33;141.37;;;;;15.90;96828.00;;;;5083368;28;20192;-86
2024/02/13 11:41:02;;;;;;;160.20;146.60;;;;;15.80;96834.00;;;;5082590;28;20215;-86
2024/02/13 11:43:51;;;;;;;173.83;159.33;;;;;17.10;96839.00;;;;5081362;28;20206;-87
2024/02/13 11:46:50;;;;;;;181.37;165.90;;;;;16.60;96813.00;;;;5089209;28;20202;-86
2024/02/13 11:49:40;;;;;;;190.13;175.27;;;;;17.10;96829.00;;;;5091683;28;20676;-85
2024/02/13 11:52:29;;;;;;;193.70;178.83;;;;;16.20;96863.00;;;;5088173;28;20214;-86
2024/02/13 11:55:19;;;;;;;188.00;174.20;;;;;16.10;96874.00;;;;5090373;28;20212;-86
2024/02/13 11:58:19;;;;;;;181.30;167.83;;;;;15.60;96871.00;;;;5089695;28;20457;-86
2024/02/13 12:01:10;;;;;;;158.67;147.23;;;;;15.20;96872.00;;;;5085689;28;20230;-86
2024/02/13 12:04:01;;;;;;;155.87;144.00;;;;;15.00;96881.00;;;;5088292;28;20207;-86
2024/02/13 12:06:51;;;;;;;143.90;133.53;;;;;14.40;96875.00;;;;5092338;28;20196;-86
2024/02/13 12:09:41;;;;;;;134.83;124.90;;;;;15.20;96835.00;;;;5094994;28;20297;-87
2024/02/13 12:12:31;;;;;;;142.33;131.20;;;;;15.80;96864.00;;;;5080346;28;20204;-85
2024/02/13 12:15:22;;;;;;;149.93;138.00;;;;;16.30;96828.00;;;;5080531;28;20584;-86
2024/02/13 12:18:12;;;;;;;161.73;148.50;;;;;16.90;96830.00;;;;5094260;28;20199;-86
2024/02/13 12:21:07;;;;;;;182.83;167.33;;;;;16.10;96828.00;;;;5089846;28;20222;-87
2024/02/13 12:24:01;;;;;;;176.47;163.20;;;;;15.30;96835.00;;;;5098135;28;20603;-86
2024/02/13 12:26:51;;;;;;;192.60;177.23;;;;;15.20;96823.00;;;;5085298;28;20196;-86
2024/02/13 12:29:41;;;;;;;199.93;183.93;;;;;16.20;96824.00;;;;5081662;28;20203;-86
2024/02/13 12:32:33;;;;;;;217.03;199.17;;;;;17.70;96822.00;;;;5085374;28;20211;-87
2024/02/13 12:35:25;;;;;;;220.67;202.23;;;;;15.50;96823.00;;;;5088654;28;20199;-86
2024/02/13 12:38:19;;;;;;;243.20;220.77;;;;;18.10;96811.00;;;;5081924;28;20651;-86
2024/02/13 12:41:08;;;;;;;253.60;229.53;;;;;16.40;96809.00;;;;5083920;28;20677;-86
2024/02/13 12:43:57;;;;;;;250.80;226.40;;;;;17.80;96832.00;;;;5079393;28;20206;-86
2024/02/13 12:46:48;;;;;;;276.27;248.07;;;;;19.80;96825.00;;;;5083916;28;20664;-86
2024/02/13 12:49:38;;;;;;;302.00;269.77;;;;;16.20;96807.00;;;;5089586;28;20385;-86
2024/02/13 12:52:27;;;;;;;308.67;275.43;;;;;17.00;96805.00;;;;5088150;28;20191;-86
2024/02/13 12:55:20;;;;;;;310.67;277.87;;;;;16.40;96866.00;;;;5077496;28;20550;-87
2024/02/13 12:58:11;;;;;;;287.23;258.77;;;;;12.80;96838.00;;;;5081968;28;20223;-88
2024/02/13 13:01:03;;;;;;;251.17;225.80;;;;;15.10;96861.00;;;;5081768;28;20231;-85
2024/02/13 13:03:53;;;;;;;228.30;205.50;;;;;14.70;96864.00;;;;5080717;28;20563;-86
2024/02/13 13:06:44;;;;;;;208.37;186.97;;;;;14.80;96866.00;;;;5079187;28;20208;-86
2024/02/13 13:09:34;;;;;;;199.90;178.00;;;;;15.90;96869.00;;;;5086078;28;20199;-87
2024/02/13 13:12:25;;;;;;;193.50;172.27;;;;;16.30;96872.00;;;;5085240;28;20746;-86
2024/02/13 13:15:14;;;;;;;184.43;163.50;;;;;15.80;96872.00;;;;5080751;28;20208;-84
2024/02/13 13:18:04;;;;;;;185.47;164.60;;;;;15.20;96871.00;;;;5084048;28;20223;-85
2024/02/13 13:20:55;;;;;;;193.07;164.30;;;;;17.60;96893.00;;;;5089666;28;20234;-86
2024/02/13 13:23:48;;;;;;;206.63;178.73;;;;;16.00;96880.00;;;;5077172;28;20283;-85
2024/02/13 13:26:41;;;;;;;194.07;173.07;;;;;14.50;96832.00;;;;5084298;28;20301;-86
2024/02/13 13:29:31;;;;;;;190.07;169.17;;;;;15.80;96897.00;;;;5090580;28;20202;-84
2024/02/13 13:32:21;;;;;;;189.47;168.93;;;;;15.10;96891.00;;;;5082428;28;20210;-85
2024/02/13 13:35:13;;;;;;;190.40;170.67;;;;;14.70;96887.00;;;;5083403;28;20244;-85
2024/02/13 13:38:03;;;;;;;186.30;166.60;;;;;14.90;96891.00;;;;5075313;28;20625;-85
2024/02/13 13:40:53;;;;;;;177.53;158.53;;;;;14.80;96901.00;;;;5082372;28;20356;-85
2024/02/13 13:43:46;;;;;;;188.73;168.10;;;;;15.30;96870.00;;;;5089067;28;20194;-84
2024/02/13 13:46:37;;;;;;;182.63;157.40;;;;;15.50;96884.00;;;;5082865;28;20199;-85
2024/02/13 13:49:26;;;;;;;171.07;150.27;;;;;13.50;96898.00;;;;5078822;28;20200;-86
2024/02/13 13:52:15;;;;;;;171.10;153.00;;;;;12.40;96886.00;;;;5083828;28;20688;-85
2024/02/13 13:55:06;;;;;;;160.97;143.77;;;;;12.50;96877.00;;;;5090022;28;20681;-85
2024/02/13 13:57:56;;;;;;;146.53;130.43;;;;;14.00;96871.00;;;;5088539;28;20199;-86